sensor_id;sensor_type;location;lat;lon;timestamp;P1;durP1;ratioP1;P2;durP2;ratioP2
65377;SDS011;51982;51.042;13.806;2023-01-15T00:00:00;1.45;;;0.70;;
65377;SDS011;51982;51.042;13.806;2023-01-15T00:02:26;1.00;;;0.80;;
65377;SDS011;51982;51.042;13.806;2023-01-15T00:04:51;1.10;;;0.80;;
65377;SDS011;51982;51.042;13.806;2023-01-15T00:07:16;1.10;;;0.80;;
65377;SDS011;51982;51.042;13.806;2023-01-15T00:09:42;1.53;;;0.90;;
65377;SDS011;51982;51.042;13.806;2023-01-15T00:12:07;1.30;;;0.80;;
65377;SDS011;51982;51.042;13.806;2023-01-15T00:14:33;1.85;;;0.82;;
65377;SDS011;51982;51.042;13.806;2023-01-15T00:16:58;1.27;;;0.98;;
65377;SDS011;51982;51.042;13.806;2023-01-15T00:19:23;0.80;;;0.70;;
65377;SDS011;51982;51.042;13.806;2023-01-15T00:21:48;1.40;;;0.90;;
65377;SDS011;51982;51.042;13.806;2023-01-15T00:24:13;1.00;;;0.90;;
65377;SDS011;51982;51.042;13.806;2023-01-15T00:26:58;6.18;;;0.90;;
65377;SDS011;51982;51.042;13.806;2023-01-15T00:29:41;1.00;;;0.88;;
65377;SDS011;51982;51.042;13.806;2023-01-15T00:32:07;1.20;;;0.90;;
65377;SDS011;51982;51.042;13.806;2023-01-15T00:34:32;1.58;;;0.90;;
65377;SDS011;51982;51.042;13.806;2023-01-15T00:36:59;1.30;;;0.80;;
65377;SDS011;51982;51.042;13.806;2023-01-15T00:39:25;0.93;;;0.75;;
65377;SDS011;51982;51.042;13.806;2023-01-15T00:41:50;1.02;;;0.80;;
65377;SDS011;51982;51.042;13.806;2023-01-15T00:44:16;1.73;;;0.90;;
65377;SDS011;51982;51.042;13.806;2023-01-15T00:46:41;1.95;;;0.90;;
65377;SDS011;51982;51.042;13.806;2023-01-15T00:49:07;1.05;;;0.95;;
65377;SDS011;51982;51.042;13.806;2023-01-15T00:51:33;3.20;;;1.00;;
65377;SDS011;51982;51.042;13.806;2023-01-15T00:53:59;2.15;;;0.93;;
65377;SDS011;51982;51.042;13.806;2023-01-15T00:56:25;1.10;;;0.82;;
65377;SDS011;51982;51.042;13.806;2023-01-15T00:58:52;2.90;;;0.93;;
65377;SDS011;51982;51.042;13.806;2023-01-15T01:01:18;1.40;;;0.65;;
65377;SDS011;51982;51.042;13.806;2023-01-15T01:03:46;1.70;;;0.80;;
65377;SDS011;51982;51.042;13.806;2023-01-15T01:06:14;0.60;;;0.60;;
65377;SDS011;51982;51.042;13.806;2023-01-15T01:08:44;0.75;;;0.70;;
65377;SDS011;51982;51.042;13.806;2023-01-15T01:11:14;5.20;;;0.70;;
65377;SDS011;51982;51.042;13.806;2023-01-15T01:13:41;0.70;;;0.60;;
65377;SDS011;51982;51.042;13.806;2023-01-15T01:16:24;0.57;;;0.50;;
65377;SDS011;51982;51.042;13.806;2023-01-15T01:18:52;0.73;;;0.68;;
65377;SDS011;51982;51.042;13.806;2023-01-15T01:21:18;1.15;;;0.63;;
65377;SDS011;51982;51.042;13.806;2023-01-15T01:23:43;0.90;;;0.70;;
65377;SDS011;51982;51.042;13.806;2023-01-15T01:26:09;2.05;;;0.70;;
65377;SDS011;51982;51.042;13.806;2023-01-15T01:28:34;1.30;;;0.60;;
65377;SDS011;51982;51.042;13.806;2023-01-15T01:31:03;1.35;;;0.70;;
65377;SDS011;51982;51.042;13.806;2023-01-15T01:33:29;1.95;;;1.10;;
65377;SDS011;51982;51.042;13.806;2023-01-15T01:35:54;1.57;;;1.07;;
65377;SDS011;51982;51.042;13.806;2023-01-15T01:38:19;1.77;;;1.23;;
65377;SDS011;51982;51.042;13.806;2023-01-15T01:40:44;1.83;;;1.20;;
65377;SDS011;51982;51.042;13.806;2023-01-15T01:43:19;1.03;;;0.93;;
65377;SDS011;51982;51.042;13.806;2023-01-15T01:45:46;2.13;;;1.45;;
65377;SDS011;51982;51.042;13.806;2023-01-15T01:48:12;3.80;;;1.50;;
65377;SDS011;51982;51.042;13.806;2023-01-15T01:50:38;2.95;;;1.55;;
65377;SDS011;51982;51.042;13.806;2023-01-15T01:53:06;1.83;;;1.33;;
65377;SDS011;51982;51.042;13.806;2023-01-15T01:55:35;1.90;;;1.70;;
65377;SDS011;51982;51.042;13.806;2023-01-15T01:58:02;2.17;;;1.42;;
65377;SDS011;51982;51.042;13.806;2023-01-15T02:00:29;2.78;;;1.60;;
65377;SDS011;51982;51.042;13.806;2023-01-15T02:02:56;1.90;;;1.20;;
65377;SDS011;51982;51.042;13.806;2023-01-15T02:05:32;2.28;;;1.63;;
65377;SDS011;51982;51.042;13.806;2023-01-15T02:08:09;1.77;;;1.40;;
65377;SDS011;51982;51.042;13.806;2023-01-15T02:10:35;2.53;;;1.45;;
65377;SDS011;51982;51.042;13.806;2023-01-15T02:13:03;2.42;;;1.35;;
65377;SDS011;51982;51.042;13.806;2023-01-15T02:15:47;1.33;;;1.13;;
65377;SDS011;51982;51.042;13.806;2023-01-15T02:20:59;1.42;;;1.25;;
65377;SDS011;51982;51.042;13.806;2023-01-15T02:23:31;1.45;;;1.20;;
65377;SDS011;51982;51.042;13.806;2023-01-15T02:29:33;1.20;;;1.00;;
65377;SDS011;51982;51.042;13.806;2023-01-15T02:32:07;1.50;;;1.05;;
65377;SDS011;51982;51.042;13.806;2023-01-15T02:34:39;1.27;;;1.00;;
65377;SDS011;51982;51.042;13.806;2023-01-15T02:37:11;1.63;;;1.10;;
65377;SDS011;51982;51.042;13.806;2023-01-15T02:39:41;1.17;;;1.00;;
65377;SDS011;51982;51.042;13.806;2023-01-15T02:42:10;1.65;;;1.17;;
65377;SDS011;51982;51.042;13.806;2023-01-15T02:44:40;1.95;;;1.20;;
65377;SDS011;51982;51.042;13.806;2023-01-15T02:47:07;1.35;;;1.10;;
65377;SDS011;51982;51.042;13.806;2023-01-15T02:49:34;1.42;;;0.93;;
65377;SDS011;51982;51.042;13.806;2023-01-15T02:52:02;1.75;;;1.20;;
65377;SDS011;51982;51.042;13.806;2023-01-15T02:54:38;2.45;;;1.15;;
65377;SDS011;51982;51.042;13.806;2023-01-15T02:57:06;1.38;;;0.80;;
65377;SDS011;51982;51.042;13.806;2023-01-15T02:59:38;1.10;;;0.98;;
65377;SDS011;51982;51.042;13.806;2023-01-15T03:02:09;1.70;;;1.00;;
65377;SDS011;51982;51.042;13.806;2023-01-15T03:07:42;1.05;;;0.90;;
65377;SDS011;51982;51.042;13.806;2023-01-15T03:10:11;1.25;;;0.85;;
65377;SDS011;51982;51.042;13.806;2023-01-15T03:12:43;1.63;;;0.85;;
65377;SDS011;51982;51.042;13.806;2023-01-15T03:15:29;0.70;;;0.70;;
65377;SDS011;51982;51.042;13.806;2023-01-15T03:21:27;2.10;;;0.80;;
65377;SDS011;51982;51.042;13.806;2023-01-15T03:23:57;0.90;;;0.80;;
65377;SDS011;51982;51.042;13.806;2023-01-15T03:26:26;1.25;;;0.73;;
65377;SDS011;51982;51.042;13.806;2023-01-15T03:28:52;1.50;;;0.65;;
65377;SDS011;51982;51.042;13.806;2023-01-15T03:31:19;1.45;;;0.98;;
65377;SDS011;51982;51.042;13.806;2023-01-15T03:33:45;0.85;;;0.75;;
65377;SDS011;51982;51.042;13.806;2023-01-15T03:36:10;1.30;;;1.00;;
65377;SDS011;51982;51.042;13.806;2023-01-15T03:38:36;1.42;;;0.80;;
65377;SDS011;51982;51.042;13.806;2023-01-15T03:43:53;0.98;;;0.88;;
65377;SDS011;51982;51.042;13.806;2023-01-15T03:51:34;1.70;;;1.00;;
65377;SDS011;51982;51.042;13.806;2023-01-15T03:54:05;1.25;;;1.05;;
65377;SDS011;51982;51.042;13.806;2023-01-15T03:56:40;1.27;;;0.77;;
65377;SDS011;51982;51.042;13.806;2023-01-15T03:59:25;1.15;;;0.82;;
65377;SDS011;51982;51.042;13.806;2023-01-15T04:01:53;0.95;;;0.85;;
65377;SDS011;51982;51.042;13.806;2023-01-15T04:04:19;0.95;;;0.80;;
65377;SDS011;51982;51.042;13.806;2023-01-15T04:06:45;1.00;;;0.90;;
65377;SDS011;51982;51.042;13.806;2023-01-15T04:09:11;1.15;;;0.77;;
65377;SDS011;51982;51.042;13.806;2023-01-15T04:11:37;1.70;;;0.80;;
65377;SDS011;51982;51.042;13.806;2023-01-15T04:14:02;1.30;;;1.00;;
65377;SDS011;51982;51.042;13.806;2023-01-15T04:16:30;4.80;;;1.17;;
65377;SDS011;51982;51.042;13.806;2023-01-15T04:18:57;1.27;;;1.17;;
65377;SDS011;51982;51.042;13.806;2023-01-15T04:21:22;1.70;;;1.20;;
65377;SDS011;51982;51.042;13.806;2023-01-15T04:23:48;2.33;;;1.27;;
65377;SDS011;51982;51.042;13.806;2023-01-15T04:26:13;5.50;;;1.33;;
65377;SDS011;51982;51.042;13.806;2023-01-15T04:28:39;1.40;;;1.23;;
65377;SDS011;51982;51.042;13.806;2023-01-15T04:31:05;1.48;;;1.20;;
65377;SDS011;51982;51.042;13.806;2023-01-15T04:33:30;2.08;;;1.30;;
65377;SDS011;51982;51.042;13.806;2023-01-15T04:35:58;1.50;;;1.00;;
65377;SDS011;51982;51.042;13.806;2023-01-15T04:38:24;2.00;;;1.20;;
65377;SDS011;51982;51.042;13.806;2023-01-15T04:40:50;1.85;;;1.27;;
65377;SDS011;51982;51.042;13.806;2023-01-15T04:43:33;1.30;;;1.20;;
65377;SDS011;51982;51.042;13.806;2023-01-15T04:46:19;1.67;;;1.20;;
65377;SDS011;51982;51.042;13.806;2023-01-15T04:48:46;1.52;;;1.00;;
65377;SDS011;51982;51.042;13.806;2023-01-15T04:51:11;2.33;;;1.10;;
65377;SDS011;51982;51.042;13.806;2023-01-15T04:53:36;1.02;;;0.93;;
65377;SDS011;51982;51.042;13.806;2023-01-15T04:56:02;2.83;;;1.30;;
65377;SDS011;51982;51.042;13.806;2023-01-15T04:58:28;1.27;;;1.10;;
65377;SDS011;51982;51.042;13.806;2023-01-15T05:00:54;0.95;;;0.90;;
65377;SDS011;51982;51.042;13.806;2023-01-15T05:03:20;1.63;;;1.08;;
65377;SDS011;51982;51.042;13.806;2023-01-15T05:05:45;3.13;;;1.20;;
65377;SDS011;51982;51.042;13.806;2023-01-15T05:08:10;1.37;;;1.10;;
65377;SDS011;51982;51.042;13.806;2023-01-15T05:10:35;1.67;;;1.08;;
65377;SDS011;51982;51.042;13.806;2023-01-15T05:13:01;1.30;;;1.10;;
65377;SDS011;51982;51.042;13.806;2023-01-15T05:15:26;1.33;;;1.13;;
65377;SDS011;51982;51.042;13.806;2023-01-15T05:17:51;3.70;;;1.50;;
65377;SDS011;51982;51.042;13.806;2023-01-15T05:20:16;2.33;;;1.00;;
65377;SDS011;51982;51.042;13.806;2023-01-15T05:22:41;0.80;;;0.80;;
65377;SDS011;51982;51.042;13.806;2023-01-15T05:25:07;1.55;;;1.17;;
65377;SDS011;51982;51.042;13.806;2023-01-15T05:27:32;2.00;;;0.90;;
65377;SDS011;51982;51.042;13.806;2023-01-15T05:29:57;0.85;;;0.70;;
65377;SDS011;51982;51.042;13.806;2023-01-15T05:32:23;1.23;;;0.90;;
65377;SDS011;51982;51.042;13.806;2023-01-15T05:34:48;2.67;;;0.80;;
65377;SDS011;51982;51.042;13.806;2023-01-15T05:37:13;1.23;;;0.87;;
65377;SDS011;51982;51.042;13.806;2023-01-15T05:39:38;0.60;;;0.60;;
65377;SDS011;51982;51.042;13.806;2023-01-15T05:42:03;1.50;;;0.70;;
65377;SDS011;51982;51.042;13.806;2023-01-15T05:44:29;1.00;;;0.60;;
65377;SDS011;51982;51.042;13.806;2023-01-15T05:46:55;0.50;;;0.50;;
65377;SDS011;51982;51.042;13.806;2023-01-15T05:49:23;0.90;;;0.60;;
65377;SDS011;51982;51.042;13.806;2023-01-15T05:51:51;0.52;;;0.50;;
65377;SDS011;51982;51.042;13.806;2023-01-15T05:54:18;0.98;;;0.70;;
65377;SDS011;51982;51.042;13.806;2023-01-15T05:56:45;1.02;;;0.60;;
65377;SDS011;51982;51.042;13.806;2023-01-15T05:59:12;0.82;;;0.68;;
65377;SDS011;51982;51.042;13.806;2023-01-15T06:01:38;1.58;;;0.90;;
65377;SDS011;51982;51.042;13.806;2023-01-15T06:04:04;1.15;;;0.90;;
65377;SDS011;51982;51.042;13.806;2023-01-15T06:06:31;0.90;;;0.88;;
65377;SDS011;51982;51.042;13.806;2023-01-15T06:08:57;2.05;;;0.90;;
65377;SDS011;51982;51.042;13.806;2023-01-15T06:11:22;1.33;;;0.95;;
65377;SDS011;51982;51.042;13.806;2023-01-15T06:13:47;1.02;;;0.93;;
65377;SDS011;51982;51.042;13.806;2023-01-15T06:16:13;1.17;;;1.02;;
65377;SDS011;51982;51.042;13.806;2023-01-15T06:18:38;2.03;;;1.20;;
65377;SDS011;51982;51.042;13.806;2023-01-15T06:21:04;1.70;;;1.20;;
65377;SDS011;51982;51.042;13.806;2023-01-15T06:23:30;1.17;;;1.00;;
65377;SDS011;51982;51.042;13.806;2023-01-15T06:25:59;1.13;;;1.00;;
65377;SDS011;51982;51.042;13.806;2023-01-15T06:28:26;1.48;;;1.10;;
65377;SDS011;51982;51.042;13.806;2023-01-15T06:30:51;1.20;;;1.10;;
65377;SDS011;51982;51.042;13.806;2023-01-15T06:33:17;1.30;;;0.93;;
65377;SDS011;51982;51.042;13.806;2023-01-15T06:35:42;1.43;;;1.00;;
65377;SDS011;51982;51.042;13.806;2023-01-15T06:38:07;0.80;;;0.80;;
65377;SDS011;51982;51.042;13.806;2023-01-15T06:40:32;1.67;;;1.20;;
65377;SDS011;51982;51.042;13.806;2023-01-15T06:42:58;1.10;;;1.00;;
65377;SDS011;51982;51.042;13.806;2023-01-15T06:48:26;0.47;;;0.40;;
65377;SDS011;51982;51.042;13.806;2023-01-15T06:50:52;0.38;;;0.30;;
65377;SDS011;51982;51.042;13.806;2023-01-15T06:53:18;0.10;;;0.10;;
65377;SDS011;51982;51.042;13.806;2023-01-15T06:55:44;0.08;;;0.08;;
65377;SDS011;51982;51.042;13.806;2023-01-15T06:58:09;1.58;;;0.17;;
65377;SDS011;51982;51.042;13.806;2023-01-15T07:00:34;0.75;;;0.25;;
65377;SDS011;51982;51.042;13.806;2023-01-15T07:03:00;0.43;;;0.30;;
65377;SDS011;51982;51.042;13.806;2023-01-15T07:05:26;0.10;;;0.10;;
65377;SDS011;51982;51.042;13.806;2023-01-15T07:07:52;0.25;;;0.13;;
65377;SDS011;51982;51.042;13.806;2023-01-15T07:10:17;0.25;;;0.20;;
65377;SDS011;51982;51.042;13.806;2023-01-15T07:12:43;0.20;;;0.20;;
65377;SDS011;51982;51.042;13.806;2023-01-15T07:15:08;0.20;;;0.20;;
65377;SDS011;51982;51.042;13.806;2023-01-15T07:17:34;0.28;;;0.22;;
65377;SDS011;51982;51.042;13.806;2023-01-15T07:19:59;0.75;;;0.40;;
65377;SDS011;51982;51.042;13.806;2023-01-15T07:22:24;0.28;;;0.28;;
65377;SDS011;51982;51.042;13.806;2023-01-15T07:24:50;0.32;;;0.32;;
65377;SDS011;51982;51.042;13.806;2023-01-15T07:27:15;0.63;;;0.32;;
65377;SDS011;51982;51.042;13.806;2023-01-15T07:29:40;0.20;;;0.20;;
65377;SDS011;51982;51.042;13.806;2023-01-15T07:32:05;0.73;;;0.20;;
65377;SDS011;51982;51.042;13.806;2023-01-15T07:34:31;0.32;;;0.20;;
65377;SDS011;51982;51.042;13.806;2023-01-15T07:36:56;0.30;;;0.30;;
65377;SDS011;51982;51.042;13.806;2023-01-15T07:39:21;0.60;;;0.40;;
65377;SDS011;51982;51.042;13.806;2023-01-15T07:41:46;1.33;;;0.90;;
65377;SDS011;51982;51.042;13.806;2023-01-15T07:44:30;1.48;;;0.80;;
65377;SDS011;51982;51.042;13.806;2023-01-15T07:47:15;0.70;;;0.60;;
65377;SDS011;51982;51.042;13.806;2023-01-15T07:50:04;0.38;;;0.38;;
65377;SDS011;51982;51.042;13.806;2023-01-15T07:52:31;3.17;;;0.30;;
65377;SDS011;51982;51.042;13.806;2023-01-15T07:54:56;1.75;;;0.90;;
65377;SDS011;51982;51.042;13.806;2023-01-15T07:57:22;1.20;;;0.50;;
65377;SDS011;51982;51.042;13.806;2023-01-15T07:59:48;2.88;;;0.93;;
65377;SDS011;51982;51.042;13.806;2023-01-15T08:02:14;2.65;;;1.05;;
65377;SDS011;51982;51.042;13.806;2023-01-15T08:04:39;0.43;;;0.43;;
65377;SDS011;51982;51.042;13.806;2023-01-15T08:07:04;1.42;;;0.50;;
65377;SDS011;51982;51.042;13.806;2023-01-15T08:09:30;0.90;;;0.52;;
65377;SDS011;51982;51.042;13.806;2023-01-15T08:11:59;0.55;;;0.50;;
65377;SDS011;51982;51.042;13.806;2023-01-15T08:14:44;0.63;;;0.55;;
65377;SDS011;51982;51.042;13.806;2023-01-15T08:17:28;0.80;;;0.50;;
65377;SDS011;51982;51.042;13.806;2023-01-15T08:19:54;2.22;;;0.57;;
65377;SDS011;51982;51.042;13.806;2023-01-15T08:22:19;0.70;;;0.40;;
65377;SDS011;51982;51.042;13.806;2023-01-15T08:24:45;0.93;;;0.50;;
65377;SDS011;51982;51.042;13.806;2023-01-15T08:27:10;0.50;;;0.50;;
65377;SDS011;51982;51.042;13.806;2023-01-15T08:29:36;2.05;;;0.60;;
65377;SDS011;51982;51.042;13.806;2023-01-15T08:32:01;0.77;;;0.40;;
65377;SDS011;51982;51.042;13.806;2023-01-15T08:34:26;0.60;;;0.52;;
65377;SDS011;51982;51.042;13.806;2023-01-15T08:36:51;1.03;;;0.63;;
65377;SDS011;51982;51.042;13.806;2023-01-15T08:39:21;0.55;;;0.50;;
65377;SDS011;51982;51.042;13.806;2023-01-15T08:41:47;0.63;;;0.50;;
65377;SDS011;51982;51.042;13.806;2023-01-15T08:44:12;1.58;;;0.52;;
65377;SDS011;51982;51.042;13.806;2023-01-15T08:46:37;0.65;;;0.60;;
65377;SDS011;51982;51.042;13.806;2023-01-15T08:49:02;1.13;;;0.70;;
65377;SDS011;51982;51.042;13.806;2023-01-15T08:51:28;2.53;;;0.80;;
65377;SDS011;51982;51.042;13.806;2023-01-15T08:53:53;2.25;;;0.60;;
65377;SDS011;51982;51.042;13.806;2023-01-15T08:56:19;0.30;;;0.30;;
65377;SDS011;51982;51.042;13.806;2023-01-15T08:58:44;1.45;;;0.60;;
65377;SDS011;51982;51.042;13.806;2023-01-15T09:01:11;1.17;;;0.63;;
65377;SDS011;51982;51.042;13.806;2023-01-15T09:03:39;3.08;;;0.80;;
65377;SDS011;51982;51.042;13.806;2023-01-15T09:06:08;2.72;;;1.20;;
65377;SDS011;51982;51.042;13.806;2023-01-15T09:08:35;4.32;;;1.52;;
65377;SDS011;51982;51.042;13.806;2023-01-15T09:11:01;2.20;;;1.20;;
65377;SDS011;51982;51.042;13.806;2023-01-15T09:13:28;1.77;;;0.90;;
65377;SDS011;51982;51.042;13.806;2023-01-15T09:16:01;1.75;;;1.10;;
65377;SDS011;51982;51.042;13.806;2023-01-15T09:18:29;3.17;;;1.27;;
65377;SDS011;51982;51.042;13.806;2023-01-15T09:20:54;1.13;;;0.85;;
65377;SDS011;51982;51.042;13.806;2023-01-15T09:23:20;1.75;;;0.90;;
65377;SDS011;51982;51.042;13.806;2023-01-15T09:25:55;3.05;;;1.00;;
65377;SDS011;51982;51.042;13.806;2023-01-15T09:28:22;1.33;;;0.80;;
65377;SDS011;51982;51.042;13.806;2023-01-15T09:30:48;2.08;;;0.80;;
65377;SDS011;51982;51.042;13.806;2023-01-15T09:33:13;2.35;;;1.10;;
65377;SDS011;51982;51.042;13.806;2023-01-15T09:35:39;1.88;;;1.45;;
65377;SDS011;51982;51.042;13.806;2023-01-15T09:38:04;2.38;;;0.90;;
65377;SDS011;51982;51.042;13.806;2023-01-15T09:43:01;1.13;;;0.98;;
65377;SDS011;51982;51.042;13.806;2023-01-15T09:45:34;1.00;;;0.80;;
65377;SDS011;51982;51.042;13.806;2023-01-15T09:53:48;2.90;;;1.15;;
65377;SDS011;51982;51.042;13.806;2023-01-15T09:56:30;3.15;;;1.00;;
65377;SDS011;51982;51.042;13.806;2023-01-15T09:58:57;2.70;;;1.63;;
65377;SDS011;51982;51.042;13.806;2023-01-15T10:01:26;3.80;;;1.73;;
65377;SDS011;51982;51.042;13.806;2023-01-15T10:09:28;3.35;;;0.93;;
65377;SDS011;51982;51.042;13.806;2023-01-15T10:12:03;1.92;;;1.05;;
65377;SDS011;51982;51.042;13.806;2023-01-15T10:17:52;1.10;;;0.90;;
65377;SDS011;51982;51.042;13.806;2023-01-15T10:23:15;2.25;;;1.17;;
65377;SDS011;51982;51.042;13.806;2023-01-15T10:26:02;1.50;;;0.90;;
65377;SDS011;51982;51.042;13.806;2023-01-15T10:28:57;1.85;;;1.33;;
65377;SDS011;51982;51.042;13.806;2023-01-15T10:37:22;1.75;;;1.30;;
65377;SDS011;51982;51.042;13.806;2023-01-15T10:40:08;2.10;;;1.40;;
65377;SDS011;51982;51.042;13.806;2023-01-15T10:45:46;1.35;;;1.10;;
65377;SDS011;51982;51.042;13.806;2023-01-15T10:48:29;1.58;;;1.05;;
65377;SDS011;51982;51.042;13.806;2023-01-15T10:51:05;3.25;;;1.60;;
65377;SDS011;51982;51.042;13.806;2023-01-15T10:53:53;1.30;;;1.00;;
65377;SDS011;51982;51.042;13.806;2023-01-15T10:56:32;0.90;;;0.65;;
65377;SDS011;51982;51.042;13.806;2023-01-15T10:59:13;2.63;;;0.90;;
65377;SDS011;51982;51.042;13.806;2023-01-15T11:01:43;2.53;;;1.00;;
65377;SDS011;51982;51.042;13.806;2023-01-15T11:04:09;1.77;;;1.00;;
65377;SDS011;51982;51.042;13.806;2023-01-15T11:06:37;0.70;;;0.70;;
65377;SDS011;51982;51.042;13.806;2023-01-15T11:09:03;6.70;;;3.22;;
65377;SDS011;51982;51.042;13.806;2023-01-15T11:11:40;4.20;;;1.55;;
65377;SDS011;51982;51.042;13.806;2023-01-15T11:14:37;1.70;;;0.90;;
65377;SDS011;51982;51.042;13.806;2023-01-15T11:17:24;0.77;;;0.50;;
65377;SDS011;51982;51.042;13.806;2023-01-15T11:20:26;0.50;;;0.50;;
65377;SDS011;51982;51.042;13.806;2023-01-15T11:22:55;0.68;;;0.45;;
65377;SDS011;51982;51.042;13.806;2023-01-15T11:25:30;0.55;;;0.50;;
65377;SDS011;51982;51.042;13.806;2023-01-15T11:27:57;0.60;;;0.40;;
65377;SDS011;51982;51.042;13.806;2023-01-15T11:30:26;1.85;;;0.50;;
65377;SDS011;51982;51.042;13.806;2023-01-15T11:32:56;0.52;;;0.38;;
65377;SDS011;51982;51.042;13.806;2023-01-15T11:35:23;0.50;;;0.40;;
65377;SDS011;51982;51.042;13.806;2023-01-15T11:37:49;1.27;;;0.60;;
65377;SDS011;51982;51.042;13.806;2023-01-15T11:40:18;2.55;;;0.38;;
65377;SDS011;51982;51.042;13.806;2023-01-15T11:42:48;0.47;;;0.47;;
65377;SDS011;51982;51.042;13.806;2023-01-15T11:45:33;0.32;;;0.30;;
65377;SDS011;51982;51.042;13.806;2023-01-15T11:51:06;0.52;;;0.47;;
65377;SDS011;51982;51.042;13.806;2023-01-15T11:53:34;0.57;;;0.40;;
65377;SDS011;51982;51.042;13.806;2023-01-15T11:56:07;0.75;;;0.40;;
65377;SDS011;51982;51.042;13.806;2023-01-15T11:58:43;1.67;;;0.50;;
65377;SDS011;51982;51.042;13.806;2023-01-15T12:01:13;0.52;;;0.50;;
65377;SDS011;51982;51.042;13.806;2023-01-15T12:03:45;1.00;;;0.60;;
65377;SDS011;51982;51.042;13.806;2023-01-15T12:06:11;0.52;;;0.45;;
65377;SDS011;51982;51.042;13.806;2023-01-15T12:14:35;0.80;;;0.55;;
65377;SDS011;51982;51.042;13.806;2023-01-15T12:17:21;0.63;;;0.52;;
65377;SDS011;51982;51.042;13.806;2023-01-15T12:20:20;0.73;;;0.50;;
65377;SDS011;51982;51.042;13.806;2023-01-15T12:25:48;0.60;;;0.60;;
65377;SDS011;51982;51.042;13.806;2023-01-15T12:28:21;0.63;;;0.50;;
65377;SDS011;51982;51.042;13.806;2023-01-15T12:31:01;0.80;;;0.50;;
65377;SDS011;51982;51.042;13.806;2023-01-15T12:33:37;0.88;;;0.43;;
65377;SDS011;51982;51.042;13.806;2023-01-15T12:36:24;1.17;;;0.60;;
65377;SDS011;51982;51.042;13.806;2023-01-15T12:41:26;0.70;;;0.60;;
65377;SDS011;51982;51.042;13.806;2023-01-15T12:44:17;1.27;;;0.65;;
65377;SDS011;51982;51.042;13.806;2023-01-15T12:47:09;1.10;;;0.70;;
65377;SDS011;51982;51.042;13.806;2023-01-15T12:49:39;0.77;;;0.60;;
65377;SDS011;51982;51.042;13.806;2023-01-15T12:54:41;2.00;;;0.80;;
65377;SDS011;51982;51.042;13.806;2023-01-15T13:00:16;1.70;;;0.70;;
65377;SDS011;51982;51.042;13.806;2023-01-15T13:05:31;0.73;;;0.60;;
65377;SDS011;51982;51.042;13.806;2023-01-15T13:08:11;0.95;;;0.63;;
65377;SDS011;51982;51.042;13.806;2023-01-15T13:10:48;0.73;;;0.50;;
65377;SDS011;51982;51.042;13.806;2023-01-15T13:13:15;3.88;;;0.75;;
65377;SDS011;51982;51.042;13.806;2023-01-15T13:15:54;0.68;;;0.60;;
65377;SDS011;51982;51.042;13.806;2023-01-15T13:18:36;0.30;;;0.30;;
65377;SDS011;51982;51.042;13.806;2023-01-15T13:21:12;1.60;;;0.70;;
65377;SDS011;51982;51.042;13.806;2023-01-15T13:23:56;0.82;;;0.38;;
65377;SDS011;51982;51.042;13.806;2023-01-15T13:26:30;1.27;;;0.65;;
65377;SDS011;51982;51.042;13.806;2023-01-15T13:29:18;0.82;;;0.40;;
65377;SDS011;51982;51.042;13.806;2023-01-15T13:32:06;0.60;;;0.28;;
65377;SDS011;51982;51.042;13.806;2023-01-15T13:34:48;0.43;;;0.40;;
65377;SDS011;51982;51.042;13.806;2023-01-15T13:40:22;0.70;;;0.50;;
65377;SDS011;51982;51.042;13.806;2023-01-15T13:42:52;0.73;;;0.40;;
65377;SDS011;51982;51.042;13.806;2023-01-15T13:45:21;1.30;;;0.32;;
65377;SDS011;51982;51.042;13.806;2023-01-15T13:47:52;0.75;;;0.50;;
65377;SDS011;51982;51.042;13.806;2023-01-15T13:50:30;0.55;;;0.38;;
65377;SDS011;51982;51.042;13.806;2023-01-15T13:53:58;0.65;;;0.50;;
65377;SDS011;51982;51.042;13.806;2023-01-15T13:58:39;0.93;;;0.40;;
65377;SDS011;51982;51.042;13.806;2023-01-15T14:04:04;1.55;;;0.40;;
65377;SDS011;51982;51.042;13.806;2023-01-15T14:06:49;0.65;;;0.47;;
65377;SDS011;51982;51.042;13.806;2023-01-15T14:14:34;0.98;;;0.30;;
65377;SDS011;51982;51.042;13.806;2023-01-15T14:28:41;0.95;;;0.60;;
65377;SDS011;51982;51.042;13.806;2023-01-15T14:34:16;0.65;;;0.60;;
65377;SDS011;51982;51.042;13.806;2023-01-15T14:36:47;0.60;;;0.50;;
65377;SDS011;51982;51.042;13.806;2023-01-15T14:39:23;0.60;;;0.40;;
65377;SDS011;51982;51.042;13.806;2023-01-15T14:42:00;0.57;;;0.40;;
65377;SDS011;51982;51.042;13.806;2023-01-15T14:44:54;0.25;;;0.25;;
65377;SDS011;51982;51.042;13.806;2023-01-15T14:47:26;0.28;;;0.28;;
65377;SDS011;51982;51.042;13.806;2023-01-15T14:50:03;0.25;;;0.25;;
65377;SDS011;51982;51.042;13.806;2023-01-15T14:53:00;1.55;;;0.40;;
65377;SDS011;51982;51.042;13.806;2023-01-15T14:55:29;0.63;;;0.40;;
65377;SDS011;51982;51.042;13.806;2023-01-15T14:58:00;0.68;;;0.38;;
65377;SDS011;51982;51.042;13.806;2023-01-15T15:00:31;0.83;;;0.50;;
65377;SDS011;51982;51.042;13.806;2023-01-15T15:03:00;0.95;;;0.30;;
65377;SDS011;51982;51.042;13.806;2023-01-15T15:05:29;0.20;;;0.20;;
65377;SDS011;51982;51.042;13.806;2023-01-15T15:07:56;0.43;;;0.30;;
65377;SDS011;51982;51.042;13.806;2023-01-15T15:10:25;2.60;;;0.30;;
65377;SDS011;51982;51.042;13.806;2023-01-15T15:12:59;0.30;;;0.30;;
65377;SDS011;51982;51.042;13.806;2023-01-15T15:15:50;0.47;;;0.32;;
65377;SDS011;51982;51.042;13.806;2023-01-15T15:18:26;0.32;;;0.30;;
65377;SDS011;51982;51.042;13.806;2023-01-15T15:21:04;0.40;;;0.28;;
65377;SDS011;51982;51.042;13.806;2023-01-15T15:26:26;1.52;;;0.70;;
65377;SDS011;51982;51.042;13.806;2023-01-15T15:29:00;0.50;;;0.40;;
65377;SDS011;51982;51.042;13.806;2023-01-15T15:31:30;0.57;;;0.45;;
65377;SDS011;51982;51.042;13.806;2023-01-15T15:33:59;0.73;;;0.50;;
65377;SDS011;51982;51.042;13.806;2023-01-15T15:36:25;0.60;;;0.47;;
65377;SDS011;51982;51.042;13.806;2023-01-15T15:39:11;0.77;;;0.35;;
65377;SDS011;51982;51.042;13.806;2023-01-15T15:41:44;0.43;;;0.40;;
65377;SDS011;51982;51.042;13.806;2023-01-15T15:47:36;1.23;;;0.60;;
65377;SDS011;51982;51.042;13.806;2023-01-15T15:50:26;0.77;;;0.40;;
65377;SDS011;51982;51.042;13.806;2023-01-15T15:52:55;2.28;;;0.52;;
65377;SDS011;51982;51.042;13.806;2023-01-15T15:55:22;0.93;;;0.43;;
65377;SDS011;51982;51.042;13.806;2023-01-15T15:57:56;0.55;;;0.50;;
65377;SDS011;51982;51.042;13.806;2023-01-15T16:00:33;0.50;;;0.30;;
65377;SDS011;51982;51.042;13.806;2023-01-15T16:03:06;1.02;;;0.73;;
65377;SDS011;51982;51.042;13.806;2023-01-15T16:05:40;1.40;;;0.50;;
65377;SDS011;51982;51.042;13.806;2023-01-15T16:08:16;1.38;;;0.95;;
65377;SDS011;51982;51.042;13.806;2023-01-15T16:10:43;2.38;;;0.60;;
65377;SDS011;51982;51.042;13.806;2023-01-15T16:13:13;0.40;;;0.32;;
65377;SDS011;51982;51.042;13.806;2023-01-15T16:15:46;0.68;;;0.50;;
65377;SDS011;51982;51.042;13.806;2023-01-15T16:18:17;0.70;;;0.65;;
65377;SDS011;51982;51.042;13.806;2023-01-15T16:20:47;0.68;;;0.60;;
65377;SDS011;51982;51.042;13.806;2023-01-15T16:23:17;1.55;;;0.88;;
65377;SDS011;51982;51.042;13.806;2023-01-15T16:25:53;3.60;;;0.75;;
65377;SDS011;51982;51.042;13.806;2023-01-15T16:28:25;3.08;;;1.13;;
65377;SDS011;51982;51.042;13.806;2023-01-15T16:30:56;0.50;;;0.50;;
65377;SDS011;51982;51.042;13.806;2023-01-15T16:33:22;2.75;;;1.00;;
65377;SDS011;51982;51.042;13.806;2023-01-15T16:35:54;5.28;;;1.60;;
65377;SDS011;51982;51.042;13.806;2023-01-15T16:38:20;2.30;;;1.05;;
65377;SDS011;51982;51.042;13.806;2023-01-15T16:40:45;1.75;;;0.90;;